Time,TemperatureF,DewpointF,PressureIn,WindDirection,WindDirectionDegrees,WindSpeedMPH,WindSpeedGustMPH,Humidity,HourlyPrecipIn,Conditions,Clouds,dailyrainin,SoftwareType,DateUTC
2013-03-02 00:00:00,50.8,47.4,30.17,ENE,73,0.0,0.0,88,0.00,,CLR,0.00,VWS V14.00,2013-03-02 08:00:00,
2013-03-02 00:01:00,51.7,47.7,30.17,ENE,72,0.0,0.0,86,0.00,,CLR,0.00,VWS V14.00,2013-03-02 08:01:00,
2013-03-02 00:06:00,51.7,47.7,30.17,ENE,73,0.0,0.0,86,0.00,,CLR,0.00,VWS V14.00,2013-03-02 08:06:00,
2013-03-02 00:11:00,51.8,48.1,30.17,ENE,73,0.0,0.0,87,0.00,,CLR,0.00,VWS V14.00,2013-03-02 08:11:00,
2013-03-02 00:16:00,51.3,47.3,30.17,ENE,73,0.0,0.0,86,0.00,,CLR,0.00,VWS V14.00,2013-03-02 08:16:00,
2013-03-02 00:21:00,51.5,47.8,30.17,ENE,73,0.0,0.0,87,0.00,,CLR,0.00,VWS V14.00,2013-03-02 08:21:00,
2013-03-02 00:26:00,51.1,47.4,30.17,ENE,73,0.0,0.0,87,0.00,,CLR,0.00,VWS V14.00,2013-03-02 08:26:00,
2013-03-02 00:30:00,50.3,46.9,30.17,ENE,72,0.0,0.0,88,0.00,,CLR,0.00,VWS V14.00,2013-03-02 08:30:00,
2013-03-02 00:31:00,51.4,47.7,30.17,ENE,72,0.0,0.0,87,0.00,,CLR,0.00,VWS V14.00,2013-03-02 08:31:00,
2013-03-02 00:36:00,50.9,47.2,30.17,ENE,72,0.0,0.0,87,0.00,,CLR,0.00,VWS V14.00,2013-03-02 08:36:00,
2013-03-02 00:41:00,51.1,47.4,30.17,ENE,72,0.0,0.0,87,0.00,,CLR,0.00,VWS V14.00,2013-03-02 08:41:00,
2013-03-02 00:46:00,50.7,47.0,30.17,ENE,73,0.0,0.0,87,0.00,,CLR,0.00,VWS V14.00,2013-03-02 08:46:00,
2013-03-02 00:51:00,50.9,47.2,30.17,ENE,73,0.0,0.0,87,0.00,,CLR,0.00,VWS V14.00,2013-03-02 08:51:00,
2013-03-02 00:56:00,50.7,47.3,30.17,ENE,72,0.0,0.0,88,0.00,,CLR,0.00,VWS V14.00,2013-03-02 08:56:00,
2013-03-02 01:00:00,50.3,46.9,30.16,ENE,72,0.0,0.0,88,0.00,,CLR,0.00,VWS V14.00,2013-03-02 09:00:00,
2013-03-02 01:01:00,50.7,47.3,30.17,ENE,72,0.0,0.0,88,0.00,,CLR,0.00,VWS V14.00,2013-03-02 09:01:00,
2013-03-02 01:06:00,50.6,46.9,30.17,ENE,72,0.0,0.0,87,0.00,,CLR,0.00,VWS V14.00,2013-03-02 09:06:00,
2013-03-02 01:11:00,50.4,47.0,30.17,ENE,73,0.0,0.0,88,0.00,,CLR,0.00,VWS V14.00,2013-03-02 09:11:00,
2013-03-02 01:16:00,50.4,47.0,30.17,ENE,72,0.0,0.0,88,0.00,,CLR,0.00,VWS V14.00,2013-03-02 09:16:00,
2013-03-02 01:21:00,50.3,46.6,30.17,ENE,73,0.0,0.0,87,0.00,,CLR,0.00,VWS V14.00,2013-03-02 09:21:00,
2013-03-02 01:26:00,50.4,47.0,30.17,ENE,73,0.0,0.0,88,0.00,,CLR,0.00,VWS V14.00,2013-03-02 09:26:00,
2013-03-02 01:30:00,49.7,46.6,30.14,ENE,72,0.0,0.0,89,0.00,,CLR,0.00,VWS V14.00,2013-03-02 09:30:00,
2013-03-02 01:31:00,50.2,46.8,30.17,ENE,72,0.0,0.0,88,0.00,,CLR,0.00,VWS V14.00,2013-03-02 09:31:00,
2013-03-02 01:36:00,50.3,46.9,30.16,ENE,73,0.0,0.0,88,0.00,,CLR,0.00,VWS V14.00,2013-03-02 09:36:00,
2013-03-02 01:41:00,50.2,46.8,30.17,ENE,73,0.0,0.0,88,0.00,,CLR,0.00,VWS V14.00,2013-03-02 09:41:00,
2013-03-02 01:46:00,50.1,46.7,30.16,ENE,73,0.0,0.0,88,0.00,,CLR,0.00,VWS V14.00,2013-03-02 09:46:00,
2013-03-02 01:51:00,50.3,46.9,30.16,ENE,73,0.0,0.0,88,0.00,,CLR,0.00,VWS V14.00,2013-03-02 09:51:00,
2013-03-02 01:56:00,50.1,46.7,30.16,ENE,73,0.0,0.0,88,0.00,,CLR,0.00,VWS V14.00,2013-03-02 09:56:00,
2013-03-02 02:00:00,49.5,46.4,30.14,ENE,73,0.0,0.0,89,0.00,,CLR,0.00,VWS V14.00,2013-03-02 10:00:00,
2013-03-02 02:01:00,50.2,47.1,30.16,ENE,72,0.0,0.0,89,0.00,,CLR,0.00,VWS V14.00,2013-03-02 10:01:00,
2013-03-02 02:07:00,50.1,47.0,30.16,ENE,72,0.0,0.0,89,0.00,,CLR,0.00,VWS V14.00,2013-03-02 10:07:00,
2013-03-02 02:12:00,50.1,47.0,30.16,ENE,73,0.0,0.0,89,0.00,,CLR,0.00,VWS V14.00,2013-03-02 10:12:00,
2013-03-02 02:17:00,50.1,47.0,30.15,ENE,72,0.0,0.0,89,0.00,,CLR,0.00,VWS V14.00,2013-03-02 10:17:00,
2013-03-02 02:22:00,49.8,46.7,30.15,ENE,72,0.0,0.0,89,0.00,,CLR,0.00,VWS V14.00,2013-03-02 10:22:00,
2013-03-02 02:27:00,49.7,46.6,30.15,ENE,73,0.0,0.0,89,0.00,,CLR,0.00,VWS V14.00,2013-03-02 10:27:00,
2013-03-02 02:30:00,49.1,46.3,30.13,ENE,73,0.0,0.0,90,0.00,,CLR,0.00,VWS V14.00,2013-03-02 10:30:00,
2013-03-02 02:32:00,49.6,46.5,30.14,ENE,73,0.0,0.0,89,0.00,,CLR,0.00,VWS V14.00,2013-03-02 10:32:00,
2013-03-02 02:37:00,49.6,46.5,30.14,ENE,73,0.0,0.0,89,0.00,,CLR,0.00,VWS V14.00,2013-03-02 10:37:00,
2013-03-02 02:42:00,49.6,46.5,30.14,ENE,72,0.0,0.0,89,0.00,,CLR,0.00,VWS V14.00,2013-03-02 10:42:00,
2013-03-02 02:47:00,49.5,46.7,30.14,ENE,73,0.0,0.0,90,0.00,,CLR,0.00,VWS V14.00,2013-03-02 10:47:00,
2013-03-02 02:52:00,49.7,46.6,30.14,ENE,73,0.0,0.0,89,0.00,,CLR,0.00,VWS V14.00,2013-03-02 10:52:00,
2013-03-02 02:57:00,49.5,46.4,30.14,ENE,73,0.0,0.0,89,0.00,,CLR,0.00,VWS V14.00,2013-03-02 10:57:00,
2013-03-02 03:00:00,48.7,46.2,30.13,ENE,73,0.0,0.0,91,0.00,,CLR,0.00,VWS V14.00,2013-03-02 11:00:00,
2013-03-02 03:02:00,49.4,46.3,30.14,ENE,73,0.0,0.0,89,0.00,,CLR,0.00,VWS V14.00,2013-03-02 11:02:00,
2013-03-02 03:07:00,49.2,46.1,30.13,ENE,72,0.0,0.0,89,0.00,,CLR,0.00,VWS V14.00,2013-03-02 11:07:00,
2013-03-02 03:12:00,49.1,46.3,30.13,ENE,72,0.0,0.0,90,0.00,,CLR,0.00,VWS V14.00,2013-03-02 11:12:00,
2013-03-02 03:17:00,49.2,46.4,30.13,ENE,73,0.0,0.0,90,0.00,,CLR,0.00,VWS V14.00,2013-03-02 11:17:00,
2013-03-02 03:22:00,49.1,46.3,30.13,ENE,73,0.0,0.0,90,0.00,,CLR,0.00,VWS V14.00,2013-03-02 11:22:00,
2013-03-02 03:27:00,48.9,46.4,30.13,ENE,72,0.0,0.0,91,0.00,,CLR,0.00,VWS V14.00,2013-03-02 11:27:00,
2013-03-02 03:30:00,48.4,45.9,30.12,ENE,73,0.0,0.0,91,0.00,,CLR,0.00,VWS V14.00,2013-03-02 11:30:00,
2013-03-02 03:32:00,49.2,46.4,30.12,ENE,72,0.0,0.0,90,0.00,,CLR,0.00,VWS V14.00,2013-03-02 11:32:00,
2013-03-02 03:37:00,49.0,46.2,30.13,ENE,73,0.0,0.0,90,0.00,,CLR,0.00,VWS V14.00,2013-03-02 11:37:00,
2013-03-02 03:42:00,48.9,46.1,30.12,ENE,72,0.0,0.0,90,0.00,,CLR,0.00,VWS V14.00,2013-03-02 11:42:00,
2013-03-02 03:47:00,49.0,46.2,30.12,ENE,72,0.0,0.0,90,0.00,,CLR,0.00,VWS V14.00,2013-03-02 11:47:00,
2013-03-02 03:52:00,49.2,46.4,30.13,ENE,72,0.0,0.0,90,0.00,,CLR,0.00,VWS V14.00,2013-03-02 11:52:00,
2013-03-02 03:57:00,48.7,46.2,30.13,ENE,73,0.0,0.0,91,0.00,,CLR,0.00,VWS V14.00,2013-03-02 11:57:00,
2013-03-02 04:00:00,48.2,46.0,30.11,ENE,73,0.0,0.0,92,0.00,,CLR,0.00,VWS V14.00,2013-03-02 12:00:00,
2013-03-02 04:02:00,49.0,46.5,30.12,ENE,72,0.0,0.0,91,0.00,,CLR,0.00,VWS V14.00,2013-03-02 12:02:00,
2013-03-02 04:07:00,48.9,46.4,30.13,ENE,73,0.0,0.0,91,0.00,,CLR,0.00,VWS V14.00,2013-03-02 12:07:00,
2013-03-02 04:12:00,48.6,46.1,30.12,ENE,73,0.0,0.0,91,0.00,,CLR,0.00,VWS V14.00,2013-03-02 12:12:00,
2013-03-02 04:17:00,49.0,46.5,30.12,ENE,73,0.0,0.0,91,0.00,,CLR,0.00,VWS V14.00,2013-03-02 12:17:00,
2013-03-02 04:22:00,48.5,46.0,30.12,ENE,73,0.0,0.0,91,0.00,,CLR,0.00,VWS V14.00,2013-03-02 12:22:00,
2013-03-02 04:27:00,48.6,46.1,30.12,ENE,72,0.0,0.0,91,0.00,,CLR,0.00,VWS V14.00,2013-03-02 12:27:00,
2013-03-02 04:30:00,47.9,46.0,30.11,ENE,73,0.0,0.0,93,0.00,,CLR,0.00,VWS V14.00,2013-03-02 12:30:00,
2013-03-02 04:32:00,48.5,46.3,30.12,ENE,73,0.0,0.0,92,0.00,,CLR,0.00,VWS V14.00,2013-03-02 12:32:00,
2013-03-02 04:37:00,48.3,46.1,30.13,ENE,72,0.0,0.0,92,0.00,,CLR,0.00,VWS V14.00,2013-03-02 12:37:00,
2013-03-02 04:42:00,48.2,46.0,30.12,ENE,73,0.0,0.0,92,0.00,,CLR,0.00,VWS V14.00,2013-03-02 12:42:00,
2013-03-02 04:47:00,48.4,46.5,30.12,ENE,73,0.0,0.0,93,0.00,,CLR,0.00,VWS V14.00,2013-03-02 12:47:00,
2013-03-02 04:52:00,48.1,45.9,30.12,ENE,73,0.0,0.0,92,0.00,,CLR,0.00,VWS V14.00,2013-03-02 12:52:00,
2013-03-02 04:57:00,48.0,45.8,30.12,ENE,73,0.0,0.0,92,0.00,,CLR,0.00,VWS V14.00,2013-03-02 12:57:00,
2013-03-02 05:00:00,47.6,45.4,30.11,ENE,72,0.0,0.0,92,0.00,,CLR,0.00,VWS V14.00,2013-03-02 13:00:00,
2013-03-02 05:02:00,48.1,45.9,30.12,ENE,73,0.0,0.0,92,0.00,,CLR,0.00,VWS V14.00,2013-03-02 13:02:00,
2013-03-02 05:07:00,47.9,45.7,30.11,ENE,72,0.0,0.0,92,0.00,,CLR,0.00,VWS V14.00,2013-03-02 13:07:00,
2013-03-02 05:12:00,47.8,45.6,30.11,ENE,73,0.0,0.0,92,0.00,,CLR,0.00,VWS V14.00,2013-03-02 13:12:00,
2013-03-02 05:17:00,48.1,45.9,30.12,ENE,72,0.0,0.0,92,0.00,,CLR,0.00,VWS V14.00,2013-03-02 13:17:00,
2013-03-02 05:22:00,47.8,45.6,30.12,ENE,73,0.0,0.0,92,0.00,,CLR,0.00,VWS V14.00,2013-03-02 13:22:00,
2013-03-02 05:27:00,47.9,46.0,30.12,ENE,73,0.0,0.0,93,0.00,,CLR,0.00,VWS V14.00,2013-03-02 13:27:00,
2013-03-02 05:30:00,47.2,45.0,30.11,ENE,73,0.0,0.0,92,0.00,,CLR,0.00,VWS V14.00,2013-03-02 13:30:00,
2013-03-02 05:32:00,47.7,45.5,30.12,ENE,72,0.0,0.0,92,0.00,,CLR,0.00,VWS V14.00,2013-03-02 13:32:00,
2013-03-02 05:37:00,47.6,45.4,30.12,ENE,73,0.0,0.0,92,0.00,,CLR,0.00,VWS V14.00,2013-03-02 13:37:00,
2013-03-02 05:42:00,47.6,45.4,30.12,ENE,73,0.0,0.0,92,0.00,,CLR,0.00,VWS V14.00,2013-03-02 13:42:00,
2013-03-02 05:47:00,47.5,45.3,30.12,ENE,72,0.0,0.0,92,0.00,,CLR,0.00,VWS V14.00,2013-03-02 13:47:00,
2013-03-02 05:52:00,47.6,45.4,30.12,ENE,72,0.0,0.0,92,0.00,,CLR,0.00,VWS V14.00,2013-03-02 13:52:00,
2013-03-02 05:57:00,47.3,45.1,30.12,ENE,73,0.0,0.0,92,0.00,,CLR,0.00,VWS V14.00,2013-03-02 13:57:00,
2013-03-02 06:00:00,46.9,44.7,30.11,ENE,73,0.0,0.0,92,0.00,,CLR,0.00,VWS V14.00,2013-03-02 14:00:00,
2013-03-02 06:02:00,47.4,45.2,30.11,ENE,72,0.0,0.0,92,0.00,,CLR,0.00,VWS V14.00,2013-03-02 14:02:00,
2013-03-02 06:07:00,47.3,45.1,30.12,ENE,72,0.0,0.0,92,0.00,,CLR,0.00,VWS V14.00,2013-03-02 14:07:00,
2013-03-02 06:12:00,47.4,45.2,30.11,ENE,72,0.0,0.0,92,0.00,,CLR,0.00,VWS V14.00,2013-03-02 14:12:00,
2013-03-02 06:17:00,47.4,45.2,30.11,ENE,73,0.0,0.0,92,0.00,,CLR,0.00,VWS V14.00,2013-03-02 14:17:00,
2013-03-02 06:22:00,47.2,45.0,30.12,ENE,73,0.0,0.0,92,0.00,,CLR,0.00,VWS V14.00,2013-03-02 14:22:00,
2013-03-02 06:27:00,46.8,44.6,30.11,ENE,73,0.0,0.0,92,0.00,,CLR,0.00,VWS V14.00,2013-03-02 14:27:00,
2013-03-02 06:30:00,47.2,45.3,30.12,ENE,72,0.0,0.0,93,0.00,,CLR,0.00,VWS V14.00,2013-03-02 14:30:00,
2013-03-02 06:32:00,47.1,44.9,30.12,ENE,73,0.0,0.0,92,0.00,,CLR,0.00,VWS V14.00,2013-03-02 14:32:00,
2013-03-02 06:37:00,47.2,45.0,30.11,ENE,73,0.0,0.0,92,0.00,,CLR,0.00,VWS V14.00,2013-03-02 14:37:00,
2013-03-02 06:42:00,46.8,44.9,30.12,ENE,73,0.0,0.0,93,0.00,,CLR,0.00,VWS V14.00,2013-03-02 14:42:00,
2013-03-02 06:47:00,47.0,45.1,30.12,ENE,72,0.0,0.0,93,0.00,,CLR,0.00,VWS V14.00,2013-03-02 14:47:00,
2013-03-02 06:52:00,47.0,45.1,30.11,ENE,73,0.0,0.0,93,0.00,,CLR,0.00,VWS V14.00,2013-03-02 14:52:00,
2013-03-02 06:57:00,47.0,45.1,30.11,ENE,72,0.0,0.0,93,0.00,,CLR,0.00,VWS V14.00,2013-03-02 14:57:00,
2013-03-02 07:00:00,47.8,46.2,30.12,ENE,72,0.0,0.0,94,0.00,,CLR,0.00,VWS V14.00,2013-03-02 15:00:00,
2013-03-02 07:02:00,46.9,45.0,30.12,ENE,72,0.0,0.0,93,0.00,,CLR,0.00,VWS V14.00,2013-03-02 15:02:00,
2013-03-02 07:07:00,46.9,45.0,30.11,ENE,73,0.0,0.0,93,0.00,,CLR,0.00,VWS V14.00,2013-03-02 15:07:00,
2013-03-02 07:12:00,47.1,45.2,30.12,ENE,72,0.0,0.0,93,0.00,,CLR,0.00,VWS V14.00,2013-03-02 15:12:00,
2013-03-02 07:17:00,46.9,45.0,30.12,ENE,73,0.0,0.0,93,0.00,,CLR,0.00,VWS V14.00,2013-03-02 15:17:00,
2013-03-02 07:22:00,47.4,45.5,30.12,ENE,72,0.0,0.0,93,0.00,,CLR,0.00,VWS V14.00,2013-03-02 15:22:00,
2013-03-02 07:27:00,47.0,45.1,30.12,ENE,72,0.0,0.0,93,0.00,,CLR,0.00,VWS V14.00,2013-03-02 15:27:00,
2013-03-02 07:30:00,49.8,47.9,30.12,ENE,73,0.0,0.0,93,0.00,,CLR,0.00,VWS V14.00,2013-03-02 15:30:00,
2013-03-02 07:32:00,47.1,45.5,30.12,ENE,72,0.0,0.0,94,0.00,,CLR,0.00,VWS V14.00,2013-03-02 15:32:00,
2013-03-02 07:37:00,47.4,45.8,30.12,ENE,72,0.0,0.0,94,0.00,,CLR,0.00,VWS V14.00,2013-03-02 15:37:00,
2013-03-02 07:42:00,47.4,45.8,30.12,ENE,72,0.0,0.0,94,0.00,,CLR,0.00,VWS V14.00,2013-03-02 15:42:00,
2013-03-02 07:47:00,47.6,46.0,30.12,ENE,72,0.0,0.0,94,0.00,,CLR,0.00,VWS V14.00,2013-03-02 15:47:00,
2013-03-02 07:52:00,47.5,45.9,30.12,ENE,72,0.0,0.0,94,0.00,,CLR,0.00,VWS V14.00,2013-03-02 15:52:00,
2013-03-02 07:57:00,47.8,46.2,30.12,ENE,73,0.0,0.0,94,0.00,,CLR,0.00,VWS V14.00,2013-03-02 15:57:00,
2013-03-02 08:00:00,51.8,48.7,30.13,ENE,73,0.0,0.0,89,0.00,,CLR,0.00,VWS V14.00,2013-03-02 16:00:00,
2013-03-02 08:02:00,48.1,46.5,30.13,ENE,72,0.0,0.0,94,0.00,,CLR,0.00,VWS V14.00,2013-03-02 16:02:00,
2013-03-02 08:07:00,48.2,46.6,30.12,ENE,73,0.0,0.0,94,0.00,,CLR,0.00,VWS V14.00,2013-03-02 16:07:00,
2013-03-02 08:12:00,48.4,46.8,30.13,ENE,73,0.0,0.0,94,0.00,,CLR,0.00,VWS V14.00,2013-03-02 16:12:00,
2013-03-02 08:17:00,48.8,47.2,30.13,ENE,72,0.0,0.0,94,0.00,,CLR,0.00,VWS V14.00,2013-03-02 16:17:00,
2013-03-02 08:22:00,49.3,47.7,30.12,ENE,73,0.0,0.0,94,0.00,,CLR,0.00,VWS V14.00,2013-03-02 16:22:00,
2013-03-02 08:27:00,49.7,47.8,30.13,ENE,73,0.0,0.0,93,0.00,,CLR,0.00,VWS V14.00,2013-03-02 16:27:00,
2013-03-02 08:30:00,54.0,49.6,30.11,ENE,73,0.0,0.0,85,0.00,,CLR,0.00,VWS V14.00,2013-03-02 16:30:00,
2013-03-02 08:32:00,50.0,48.1,30.12,ENE,72,0.0,0.0,93,0.00,,CLR,0.00,VWS V14.00,2013-03-02 16:32:00,
2013-03-02 08:37:00,50.2,48.0,30.13,ENE,73,0.0,0.0,92,0.00,,CLR,0.00,VWS V14.00,2013-03-02 16:37:00,
2013-03-02 08:42:00,50.7,48.2,30.13,ENE,73,0.0,0.0,91,0.00,,CLR,0.00,VWS V14.00,2013-03-02 16:42:00,
2013-03-02 08:47:00,50.8,48.3,30.13,ENE,73,0.0,0.0,91,0.00,,CLR,0.00,VWS V14.00,2013-03-02 16:47:00,
2013-03-02 08:52:00,51.5,48.4,30.12,ENE,73,0.0,0.0,89,0.00,,CLR,0.00,VWS V14.00,2013-03-02 16:52:00,
2013-03-02 08:57:00,51.6,48.5,30.12,ENE,73,0.0,0.0,89,0.00,,CLR,0.00,VWS V14.00,2013-03-02 16:57:00,
2013-03-02 09:00:00,56.5,50.4,30.11,ENE,72,0.0,0.0,80,0.00,,CLR,0.00,VWS V14.00,2013-03-02 17:00:00,
2013-03-02 09:02:00,52.1,49.0,30.13,ENE,73,0.0,0.0,89,0.00,,CLR,0.00,VWS V14.00,2013-03-02 17:02:00,
2013-03-02 09:07:00,52.5,48.8,30.12,ENE,72,0.0,0.0,87,0.00,,CLR,0.00,VWS V14.00,2013-03-02 17:07:00,
2013-03-02 09:12:00,52.7,48.6,30.12,ENE,72,0.0,0.0,86,0.00,,CLR,0.00,VWS V14.00,2013-03-02 17:12:00,
2013-03-02 09:17:00,53.2,49.4,30.12,ENE,73,0.0,0.0,87,0.00,,CLR,0.00,VWS V14.00,2013-03-02 17:17:00,
2013-03-02 09:22:00,53.6,49.2,30.12,ENE,72,0.0,0.0,85,0.00,,CLR,0.00,VWS V14.00,2013-03-02 17:22:00,
2013-03-02 09:27:00,53.9,49.5,30.12,ENE,73,0.0,0.0,85,0.00,,CLR,0.00,VWS V14.00,2013-03-02 17:27:00,
2013-03-02 09:30:00,59.6,51.7,30.11,ENE,75,0.0,0.0,75,0.00,,CLR,0.00,VWS V14.00,2013-03-02 17:30:00,
2013-03-02 09:32:00,54.1,49.4,30.12,ENE,72,0.0,0.0,84,0.00,,CLR,0.00,VWS V14.00,2013-03-02 17:32:00,
2013-03-02 09:37:00,55.0,49.9,30.12,ENE,72,0.0,0.0,83,0.00,,CLR,0.00,VWS V14.00,2013-03-02 17:37:00,
2013-03-02 09:42:00,55.2,49.8,30.12,ENE,73,0.0,0.0,82,0.00,,CLR,0.00,VWS V14.00,2013-03-02 17:42:00,
2013-03-02 09:47:00,55.6,50.2,30.11,ENE,72,0.0,0.0,82,0.00,,CLR,0.00,VWS V14.00,2013-03-02 17:47:00,
2013-03-02 09:52:00,55.9,50.2,30.11,ENE,72,0.0,0.0,81,0.00,,CLR,0.00,VWS V14.00,2013-03-02 17:52:00,
2013-03-02 09:57:00,56.5,50.4,30.11,ENE,73,0.0,0.0,80,0.00,,CLR,0.00,VWS V14.00,2013-03-02 17:57:00,
2013-03-02 10:00:00,62.4,51.7,30.10,ENE,77,0.0,0.0,68,0.00,,CLR,0.00,VWS V14.00,2013-03-02 18:00:00,
2013-03-02 10:02:00,56.8,50.4,30.11,ENE,72,0.0,0.0,79,0.00,,CLR,0.00,VWS V14.00,2013-03-02 18:02:00,
2013-03-02 10:07:00,57.3,50.5,30.11,ENE,73,0.0,0.0,78,0.00,,CLR,0.00,VWS V14.00,2013-03-02 18:07:00,
2013-03-02 10:12:00,57.7,50.9,30.11,ENE,72,0.0,0.0,78,0.00,,CLR,0.00,VWS V14.00,2013-03-02 18:12:00,
2013-03-02 10:17:00,58.3,51.1,30.11,ENE,72,0.0,0.0,77,0.00,,CLR,0.00,VWS V14.00,2013-03-02 18:17:00,
2013-03-02 10:22:00,58.9,51.0,30.11,ENE,74,0.0,0.0,75,0.00,,CLR,0.00,VWS V14.00,2013-03-02 18:22:00,
2013-03-02 10:27:00,59.2,51.3,30.11,ENE,74,0.0,0.0,75,0.00,,CLR,0.00,VWS V14.00,2013-03-02 18:27:00,
2013-03-02 10:30:00,66.3,53.8,30.08,ENE,59,0.0,1.0,64,0.00,,CLR,0.00,VWS V14.00,2013-03-02 18:30:00,
2013-03-02 10:32:00,59.8,51.5,30.11,ENE,74,0.0,0.0,74,0.00,,CLR,0.00,VWS V14.00,2013-03-02 18:32:00,
2013-03-02 10:37:00,60.3,52.0,30.11,ENE,74,0.0,0.0,74,0.00,,CLR,0.00,VWS V14.00,2013-03-02 18:37:00,
2013-03-02 10:42:00,61.1,52.4,30.10,ENE,75,0.0,0.0,73,0.00,,CLR,0.00,VWS V14.00,2013-03-02 18:42:00,
2013-03-02 10:47:00,61.3,51.8,30.10,ENE,75,0.0,0.0,71,0.00,,CLR,0.00,VWS V14.00,2013-03-02 18:47:00,
2013-03-02 10:52:00,61.7,51.4,30.10,ENE,76,0.0,0.0,69,0.00,,CLR,0.00,VWS V14.00,2013-03-02 18:52:00,
2013-03-02 10:57:00,62.5,52.2,30.10,ENE,77,0.0,0.0,69,0.00,,CLR,0.00,VWS V14.00,2013-03-02 18:57:00,
2013-03-02 11:00:00,70.1,54.2,30.08,ENE,58,0.0,2.0,57,0.00,,CLR,0.00,VWS V14.00,2013-03-02 19:00:00,
2013-03-02 11:02:00,62.9,52.2,30.10,ENE,77,0.0,0.0,68,0.00,,CLR,0.00,VWS V14.00,2013-03-02 19:02:00,
2013-03-02 11:07:00,63.4,52.3,30.10,ENE,77,0.0,0.0,67,0.00,,CLR,0.00,VWS V14.00,2013-03-02 19:07:00,
2013-03-02 11:12:00,63.7,52.5,30.10,ENE,76,0.0,0.0,67,0.00,,CLR,0.00,VWS V14.00,2013-03-02 19:12:00,
2013-03-02 11:17:00,64.5,52.9,30.10,ENE,77,0.0,0.0,66,0.00,,CLR,0.00,VWS V14.00,2013-03-02 19:17:00,
2013-03-02 11:22:00,65.2,53.2,30.09,ENE,71,0.0,0.0,65,0.00,,CLR,0.00,VWS V14.00,2013-03-02 19:22:00,
2013-03-02 11:27:00,65.7,53.6,30.09,ENE,58,0.0,0.0,65,0.00,,CLR,0.00,VWS V14.00,2013-03-02 19:27:00,
2013-03-02 11:30:00,71.9,55.4,30.06,South,182,0.0,2.0,56,0.00,,CLR,0.00,VWS V14.00,2013-03-02 19:30:00,
2013-03-02 11:32:00,66.4,53.9,30.09,NE,46,0.0,2.0,64,0.00,,CLR,0.00,VWS V14.00,2013-03-02 19:32:00,
2013-03-02 11:37:00,67.0,54.4,30.09,NE,47,0.0,2.0,64,0.00,,CLR,0.00,VWS V14.00,2013-03-02 19:37:00,
2013-03-02 11:42:00,67.7,54.2,30.09,ENE,58,0.0,2.0,62,0.00,,CLR,0.00,VWS V14.00,2013-03-02 19:42:00,
2013-03-02 11:47:00,68.1,54.6,30.08,ENE,59,0.0,2.0,62,0.00,,CLR,0.00,VWS V14.00,2013-03-02 19:47:00,
2013-03-02 11:52:00,69.0,54.5,30.08,ENE,59,0.0,2.0,60,0.00,,CLR,0.00,VWS V14.00,2013-03-02 19:52:00,
2013-03-02 11:57:00,69.9,54.5,30.08,ENE,60,0.0,2.0,58,0.00,,CLR,0.00,VWS V14.00,2013-03-02 19:57:00,
2013-03-02 12:00:00,73.4,54.7,30.05,South,182,0.0,1.0,52,0.00,,CLR,0.00,VWS V14.00,2013-03-02 20:00:00,
2013-03-02 12:02:00,70.5,55.0,30.08,ENE,57,0.0,0.0,58,0.00,,CLR,0.00,VWS V14.00,2013-03-02 20:02:00,
2013-03-02 12:07:00,70.3,54.8,30.08,ENE,58,0.0,0.0,58,0.00,,CLR,0.00,VWS V14.00,2013-03-02 20:07:00,
2013-03-02 12:12:00,71.5,54.0,30.07,SE,138,0.0,2.0,54,0.00,,CLR,0.00,VWS V14.00,2013-03-02 20:12:00,
2013-03-02 12:17:00,72.2,55.2,30.07,SSE,162,0.0,2.0,55,0.00,,CLR,0.00,VWS V14.00,2013-03-02 20:17:00,
2013-03-02 12:22:00,72.2,55.7,30.06,South,184,0.0,2.0,56,0.00,,CLR,0.00,VWS V14.00,2013-03-02 20:22:00,
2013-03-02 12:27:00,71.8,55.3,30.06,South,182,0.0,2.0,56,0.00,,CLR,0.00,VWS V14.00,2013-03-02 20:27:00,
2013-03-02 12:30:00,74.3,55.0,30.04,South,181,0.0,2.0,51,0.00,,CLR,0.00,VWS V14.00,2013-03-02 20:30:00,
2013-03-02 12:32:00,71.8,55.8,30.07,South,182,0.0,1.0,57,0.00,,CLR,0.00,VWS V14.00,2013-03-02 20:32:00,
2013-03-02 12:37:00,72.6,57.0,30.06,South,182,0.0,1.0,58,0.00,,CLR,0.00,VWS V14.00,2013-03-02 20:37:00,
2013-03-02 12:42:00,73.9,54.1,30.06,South,182,0.0,1.0,50,0.00,,CLR,0.00,VWS V14.00,2013-03-02 20:42:00,
2013-03-02 12:47:00,73.8,54.6,30.06,South,183,0.0,1.0,51,0.00,,CLR,0.00,VWS V14.00,2013-03-02 20:47:00,
2013-03-02 12:52:00,73.3,54.6,30.05,South,182,0.0,1.0,52,0.00,,CLR,0.00,VWS V14.00,2013-03-02 20:52:00,
2013-03-02 12:57:00,73.1,53.9,30.05,South,182,0.0,1.0,51,0.00,,CLR,0.00,VWS V14.00,2013-03-02 20:57:00,
2013-03-02 13:00:00,74.5,55.7,30.02,South,181,0.0,1.0,52,0.00,,CLR,0.00,VWS V14.00,2013-03-02 21:00:00,
2013-03-02 13:03:00,73.7,53.9,30.05,South,182,0.0,2.0,50,0.00,,CLR,0.00,VWS V14.00,2013-03-02 21:03:00,
2013-03-02 13:07:00,74.0,54.2,30.04,South,182,0.0,2.0,50,0.00,,CLR,0.00,VWS V14.00,2013-03-02 21:07:00,
2013-03-02 13:12:00,74.3,54.5,30.05,South,182,0.0,2.0,50,0.00,,CLR,0.00,VWS V14.00,2013-03-02 21:12:00,
2013-03-02 13:17:00,74.6,55.3,30.05,South,183,0.0,2.0,51,0.00,,CLR,0.00,VWS V14.00,2013-03-02 21:17:00,
2013-03-02 13:22:00,74.4,54.6,30.04,South,181,0.0,2.0,50,0.00,,CLR,0.00,VWS V14.00,2013-03-02 21:22:00,
2013-03-02 13:27:00,74.4,55.1,30.04,South,181,0.0,2.0,51,0.00,,CLR,0.00,VWS V14.00,2013-03-02 21:27:00,
2013-03-02 13:30:00,77.1,55.3,30.01,NNW,343,0.0,2.0,47,0.00,,CLR,0.00,VWS V14.00,2013-03-02 21:30:00,
2013-03-02 13:32:00,74.6,55.3,30.04,South,181,0.0,0.0,51,0.00,,CLR,0.00,VWS V14.00,2013-03-02 21:32:00,
2013-03-02 13:37:00,74.9,54.5,30.04,South,181,0.0,1.0,49,0.00,,CLR,0.00,VWS V14.00,2013-03-02 21:37:00,
2013-03-02 13:42:00,74.7,54.8,30.04,South,181,0.0,1.0,50,0.00,,CLR,0.00,VWS V14.00,2013-03-02 21:42:00,
2013-03-02 13:47:00,74.8,55.5,30.04,South,181,0.0,1.0,51,0.00,,CLR,0.00,VWS V14.00,2013-03-02 21:47:00,
2013-03-02 13:52:00,74.4,55.1,30.03,South,181,0.0,1.0,51,0.00,,CLR,0.00,VWS V14.00,2013-03-02 21:52:00,
2013-03-02 13:58:00,74.5,55.2,30.03,South,181,0.0,1.0,51,0.00,,CLR,0.00,VWS V14.00,2013-03-02 21:58:00,
2013-03-02 14:00:00,77.4,55.6,30.00,North,349,0.0,1.0,47,0.00,,CLR,0.00,VWS V14.00,2013-03-02 22:00:00,
2013-03-02 14:03:00,74.8,56.0,30.03,South,180,0.0,0.0,52,0.00,,CLR,0.00,VWS V14.00,2013-03-02 22:03:00,
2013-03-02 14:08:00,75.2,55.8,30.03,South,181,0.0,0.0,51,0.00,,CLR,0.00,VWS V14.00,2013-03-02 22:08:00,
2013-03-02 14:13:00,75.5,56.1,30.01,South,181,0.0,1.0,51,0.00,,CLR,0.00,VWS V14.00,2013-03-02 22:13:00,
2013-03-02 14:18:00,75.8,55.3,30.01,South,181,0.0,1.0,49,0.00,,CLR,0.00,VWS V14.00,2013-03-02 22:18:00,
2013-03-02 14:23:00,77.0,55.8,30.01,NW,310,1.0,2.0,48,0.00,,CLR,0.00,VWS V14.00,2013-03-02 22:23:00,
2013-03-02 14:28:00,77.1,55.3,30.01,NNW,342,0.0,2.0,47,0.00,,CLR,0.00,VWS V14.00,2013-03-02 22:28:00,
2013-03-02 14:30:00,76.7,55.0,30.00,North,349,0.0,0.0,47,0.00,,CLR,0.00,VWS V14.00,2013-03-02 22:30:00,
2013-03-02 14:33:00,77.0,55.2,30.01,NNW,342,0.0,0.0,47,0.00,,CLR,0.00,VWS V14.00,2013-03-02 22:33:00,
2013-03-02 14:38:00,77.5,55.7,30.01,NNW,343,0.0,1.0,47,0.00,,CLR,0.00,VWS V14.00,2013-03-02 22:38:00,
2013-03-02 14:43:00,78.0,55.6,30.00,NNW,343,0.0,1.0,46,0.00,,CLR,0.00,VWS V14.00,2013-03-02 22:43:00,
2013-03-02 14:48:00,77.6,55.2,30.00,NNW,344,0.0,1.0,46,0.00,,CLR,0.00,VWS V14.00,2013-03-02 22:48:00,
2013-03-02 14:53:00,77.9,55.5,30.00,North,349,0.0,1.0,46,0.00,,CLR,0.00,VWS V14.00,2013-03-02 22:53:00,
2013-03-02 14:58:00,77.4,55.0,30.00,North,349,0.0,1.0,46,0.00,,CLR,0.00,VWS V14.00,2013-03-02 22:58:00,
2013-03-02 15:00:00,75.1,56.8,29.99,North,0,0.0,2.0,53,0.00,,CLR,0.00,VWS V14.00,2013-03-02 23:00:00,
2013-03-02 15:03:00,77.4,55.6,30.00,North,349,0.0,0.0,47,0.00,,CLR,0.00,VWS V14.00,2013-03-02 23:03:00,
2013-03-02 15:08:00,77.3,54.3,30.00,North,349,0.0,0.0,45,0.00,,CLR,0.00,VWS V14.00,2013-03-02 23:08:00,
2013-03-02 15:13:00,77.1,53.5,30.00,North,349,0.0,0.0,44,0.00,,CLR,0.00,VWS V14.00,2013-03-02 23:13:00,
2013-03-02 15:18:00,76.9,54.0,29.99,North,349,0.0,0.0,45,0.00,,CLR,0.00,VWS V14.00,2013-03-02 23:18:00,
2013-03-02 15:23:00,76.8,53.9,29.99,North,349,0.0,0.0,45,0.00,,CLR,0.00,VWS V14.00,2013-03-02 23:23:00,
2013-03-02 15:28:00,76.9,55.2,29.99,North,349,0.0,0.0,47,0.00,,CLR,0.00,VWS V14.00,2013-03-02 23:28:00,
2013-03-02 15:30:00,72.7,56.6,29.99,North,0,0.0,2.0,57,0.00,,CLR,0.00,VWS V14.00,2013-03-02 23:30:00,
2013-03-02 15:33:00,76.8,55.7,29.99,North,349,0.0,0.0,48,0.00,,CLR,0.00,VWS V14.00,2013-03-02 23:33:00,
2013-03-02 15:38:00,76.4,55.3,29.99,North,349,0.0,0.0,48,0.00,,CLR,0.00,VWS V14.00,2013-03-02 23:38:00,
2013-03-02 15:43:00,76.3,56.3,29.99,North,0,0.0,2.0,50,0.00,,CLR,0.00,VWS V14.00,2013-03-02 23:43:00,
2013-03-02 15:48:00,75.9,56.0,29.99,North,0,0.0,2.0,50,0.00,,CLR,0.00,VWS V14.00,2013-03-02 23:48:00,
2013-03-02 15:53:00,75.6,56.2,29.99,North,0,0.0,2.0,51,0.00,,CLR,0.00,VWS V14.00,2013-03-02 23:53:00,
2013-03-02 15:58:00,75.3,56.5,29.99,North,0,0.0,2.0,52,0.00,,CLR,0.00,VWS V14.00,2013-03-02 23:58:00,
2013-03-02 16:00:00,71.5,55.0,29.97,North,0,0.0,1.0,56,0.00,,CLR,0.00,VWS V14.00,2013-03-03 00:00:00,
2013-03-02 16:03:00,75.1,56.8,29.99,North,0,0.0,1.0,53,0.00,,CLR,0.00,VWS V14.00,2013-03-03 00:03:00,
2013-03-02 16:08:00,74.7,56.5,29.99,North,0,0.0,1.0,53,0.00,,CLR,0.00,VWS V14.00,2013-03-03 00:08:00,
2013-03-02 16:13:00,74.0,56.3,29.99,North,0,0.0,1.0,54,0.00,,CLR,0.00,VWS V14.00,2013-03-03 00:13:00,
2013-03-02 16:18:00,73.9,56.7,29.99,North,0,0.0,1.0,55,0.00,,CLR,0.00,VWS V14.00,2013-03-03 00:18:00,
2013-03-02 16:23:00,73.2,56.6,29.99,North,0,0.0,1.0,56,0.00,,CLR,0.00,VWS V14.00,2013-03-03 00:23:00,
2013-03-02 16:28:00,73.1,57.0,29.99,North,0,0.0,2.0,57,0.00,,CLR,0.00,VWS V14.00,2013-03-03 00:28:00,
2013-03-02 16:30:00,69.8,53.9,29.99,WNW,300,0.0,3.0,57,0.00,,CLR,0.00,VWS V14.00,2013-03-03 00:30:00,
2013-03-02 16:33:00,72.6,56.5,29.99,North,0,0.0,1.0,57,0.00,,CLR,0.00,VWS V14.00,2013-03-03 00:33:00,
2013-03-02 16:38:00,72.4,55.8,29.98,North,0,0.0,1.0,56,0.00,,CLR,0.00,VWS V14.00,2013-03-03 00:38:00,
2013-03-02 16:43:00,71.9,55.4,29.98,North,0,0.0,1.0,56,0.00,,CLR,0.00,VWS V14.00,2013-03-03 00:43:00,
2013-03-02 16:48:00,71.9,55.4,29.98,North,0,0.0,1.0,56,0.00,,CLR,0.00,VWS V14.00,2013-03-03 00:48:00,
2013-03-02 16:53:00,71.5,54.5,29.98,North,0,0.0,1.0,55,0.00,,CLR,0.00,VWS V14.00,2013-03-03 00:53:00,
2013-03-02 16:58:00,71.3,54.8,29.97,North,0,0.0,1.0,56,0.00,,CLR,0.00,VWS V14.00,2013-03-03 00:58:00,
2013-03-02 17:00:00,68.5,53.6,29.99,NW,316,0.0,1.0,59,0.00,,CLR,0.00,VWS V14.00,2013-03-03 01:00:00,
2013-03-02 17:03:00,71.2,54.7,29.98,North,0,0.0,0.0,56,0.00,,CLR,0.00,VWS V14.00,2013-03-03 01:03:00,
2013-03-02 17:08:00,71.0,55.0,29.98,North,0,0.0,0.0,57,0.00,,CLR,0.00,VWS V14.00,2013-03-03 01:08:00,
2013-03-02 17:13:00,70.6,55.1,29.98,North,1,0.0,1.0,58,0.00,,CLR,0.00,VWS V14.00,2013-03-03 01:13:00,
2013-03-02 17:18:00,70.3,54.8,29.99,North,0,0.0,1.0,58,0.00,,CLR,0.00,VWS V14.00,2013-03-03 01:18:00,
2013-03-02 17:23:00,70.4,54.9,29.99,North,1,1.0,1.0,58,0.00,,CLR,0.00,VWS V14.00,2013-03-03 01:23:00,
2013-03-02 17:28:00,69.8,53.9,29.99,WNW,299,0.0,3.0,57,0.00,,CLR,0.00,VWS V14.00,2013-03-03 01:28:00,
2013-03-02 17:30:00,65.8,54.5,30.01,NNW,342,0.0,4.0,67,0.00,,CLR,0.00,VWS V14.00,2013-03-03 01:30:00,
2013-03-02 17:33:00,69.7,54.3,29.98,WNW,300,0.0,1.0,58,0.00,,CLR,0.00,VWS V14.00,2013-03-03 01:33:00,
2013-03-02 17:38:00,69.4,54.5,29.99,WNW,301,0.0,1.0,59,0.00,,CLR,0.00,VWS V14.00,2013-03-03 01:38:00,
2013-03-02 17:43:00,69.3,53.9,29.99,NW,316,0.0,1.0,58,0.00,,CLR,0.00,VWS V14.00,2013-03-03 01:43:00,
2013-03-02 17:48:00,69.0,54.5,29.99,NW,316,0.0,1.0,60,0.00,,CLR,0.00,VWS V14.00,2013-03-03 01:48:00,
2013-03-02 17:53:00,68.5,54.1,29.99,NW,316,0.0,1.0,60,0.00,,CLR,0.00,VWS V14.00,2013-03-03 01:53:00,
2013-03-02 17:58:00,68.5,54.1,29.99,NW,316,0.0,1.0,60,0.00,,CLR,0.00,VWS V14.00,2013-03-03 01:58:00,
2013-03-02 18:00:00,64.0,53.6,30.02,NNW,347,0.0,1.0,69,0.00,,CLR,0.00,VWS V14.00,2013-03-03 02:00:00,
2013-03-02 18:03:00,67.9,53.5,30.00,NW,316,0.0,0.0,60,0.00,,CLR,0.00,VWS V14.00,2013-03-03 02:03:00,
2013-03-02 18:08:00,68.0,53.6,30.00,NW,316,0.0,1.0,60,0.00,,CLR,0.00,VWS V14.00,2013-03-03 02:08:00,
2013-03-02 18:13:00,67.3,53.4,30.00,NW,316,0.0,1.0,61,0.00,,CLR,0.00,VWS V14.00,2013-03-03 02:13:00,
2013-03-02 18:18:00,66.7,53.3,30.00,NNW,336,0.0,4.0,62,0.00,,CLR,0.00,VWS V14.00,2013-03-03 02:18:00,
2013-03-02 18:23:00,66.6,54.5,30.00,NNW,341,0.0,4.0,65,0.00,,CLR,0.00,VWS V14.00,2013-03-03 02:23:00,
2013-03-02 18:28:00,66.0,54.7,30.01,NNW,341,0.0,4.0,67,0.00,,CLR,0.00,VWS V14.00,2013-03-03 02:28:00,
2013-03-02 18:30:00,63.0,53.5,30.03,NNW,346,0.0,0.0,71,0.00,,CLR,0.00,VWS V14.00,2013-03-03 02:30:00,
2013-03-02 18:33:00,65.7,54.5,30.02,NNW,342,0.0,1.0,67,0.00,,CLR,0.00,VWS V14.00,2013-03-03 02:33:00,
2013-03-02 18:38:00,65.2,54.4,30.02,NNW,342,0.0,1.0,68,0.00,,CLR,0.00,VWS V14.00,2013-03-03 02:38:00,
2013-03-02 18:43:00,64.6,53.8,30.02,NNW,342,0.0,1.0,68,0.00,,CLR,0.00,VWS V14.00,2013-03-03 02:43:00,
2013-03-02 18:48:00,64.7,54.3,30.01,NNW,342,0.0,1.0,69,0.00,,OVC160,0.00,VWS V14.00,2013-03-03 02:48:00,
2013-03-02 18:53:00,64.3,53.9,30.02,NNW,347,0.0,1.0,69,0.00,,OVC160,0.00,VWS V14.00,2013-03-03 02:53:00,
2013-03-02 18:58:00,64.0,53.6,30.02,NNW,347,0.0,1.0,69,0.00,,OVC160,0.00,VWS V14.00,2013-03-03 02:58:00,
2013-03-02 19:00:00,62.3,53.9,30.01,NNW,345,0.0,1.0,74,0.00,,CLR,0.00,VWS V14.00,2013-03-03 03:00:00,
2013-03-02 19:03:00,63.9,53.5,30.02,NNW,347,0.0,0.0,69,0.00,,OVC160,0.00,VWS V14.00,2013-03-03 03:03:00,
2013-03-02 19:08:00,63.8,53.5,30.01,NNW,347,0.0,0.0,69,0.00,,OVC160,0.00,VWS V14.00,2013-03-03 03:08:00,
2013-03-02 19:13:00,63.4,53.1,30.02,NNW,346,0.0,0.0,69,0.00,,OVC160,0.00,VWS V14.00,2013-03-03 03:13:00,
2013-03-02 19:18:00,63.4,53.5,30.02,NNW,346,0.0,0.0,70,0.00,,OVC160,0.00,VWS V14.00,2013-03-03 03:18:00,
2013-03-02 19:23:00,63.3,53.4,30.02,NNW,346,0.0,0.0,70,0.00,,OVC160,0.00,VWS V14.00,2013-03-03 03:23:00,
2013-03-02 19:28:00,62.9,53.0,30.02,NNW,346,0.0,0.0,70,0.00,,OVC160,0.00,VWS V14.00,2013-03-03 03:28:00,
2013-03-02 19:30:00,61.7,53.3,30.01,NNW,342,0.0,1.0,74,0.00,,CLR,0.00,VWS V14.00,2013-03-03 03:30:00,
2013-03-02 19:33:00,62.9,53.4,30.03,NNW,346,0.0,0.0,71,0.00,,OVC160,0.00,VWS V14.00,2013-03-03 03:33:00,
2013-03-02 19:38:00,62.9,53.0,30.02,NNW,346,0.0,0.0,70,0.00,,OVC160,0.00,VWS V14.00,2013-03-03 03:38:00,
2013-03-02 19:43:00,62.8,53.3,30.02,NNW,346,0.0,0.0,71,0.00,,OVC160,0.00,VWS V14.00,2013-03-03 03:43:00,
2013-03-02 19:48:00,62.4,53.6,30.01,NNW,346,0.0,1.0,73,0.00,,CLR,0.00,VWS V14.00,2013-03-03 03:48:00,
2013-03-02 19:53:00,62.3,53.9,30.02,NNW,345,0.0,1.0,74,0.00,,CLR,0.00,VWS V14.00,2013-03-03 03:53:00,
2013-03-02 19:58:00,62.4,54.0,30.01,NNW,345,0.0,1.0,74,0.00,,CLR,0.00,VWS V14.00,2013-03-03 03:58:00,
2013-03-02 20:00:00,61.0,52.7,30.00,NNW,341,0.0,0.0,74,0.00,,CLR,0.00,VWS V14.00,2013-03-03 04:00:00,
2013-03-02 20:03:00,62.2,53.8,30.01,NNW,345,0.0,0.0,74,0.00,,CLR,0.00,VWS V14.00,2013-03-03 04:03:00,
2013-03-02 20:08:00,62.0,53.6,30.01,NNW,345,0.0,0.0,74,0.00,,CLR,0.00,VWS V14.00,2013-03-03 04:08:00,
2013-03-02 20:13:00,62.0,54.0,30.01,NNW,345,0.0,0.0,75,0.00,,CLR,0.00,VWS V14.00,2013-03-03 04:13:00,
2013-03-02 20:18:00,61.9,53.9,30.02,NNW,345,0.0,0.0,75,0.00,,CLR,0.00,VWS V14.00,2013-03-03 04:18:00,
2013-03-02 20:23:00,61.7,53.3,30.02,NNW,346,0.0,0.0,74,0.00,,CLR,0.00,VWS V14.00,2013-03-03 04:23:00,
2013-03-02 20:28:00,61.5,53.2,30.01,NNW,342,1.0,1.0,74,0.00,,CLR,0.00,VWS V14.00,2013-03-03 04:28:00,
2013-03-02 20:30:00,60.3,52.3,30.01,NNW,341,0.0,0.0,75,0.00,,CLR,0.00,VWS V14.00,2013-03-03 04:30:00,
2013-03-02 20:33:00,61.7,53.7,30.01,NNW,346,0.0,0.0,75,0.00,,CLR,0.00,VWS V14.00,2013-03-03 04:33:00,
2013-03-02 20:38:00,61.6,52.9,30.00,North,349,0.0,0.0,73,0.00,,CLR,0.00,VWS V14.00,2013-03-03 04:38:00,
2013-03-02 20:43:00,61.4,53.0,30.01,NNW,341,0.0,0.0,74,0.00,,CLR,0.00,VWS V14.00,2013-03-03 04:43:00,
2013-03-02 20:48:00,61.4,53.0,30.01,NNW,341,0.0,0.0,74,0.00,,CLR,0.00,VWS V14.00,2013-03-03 04:48:00,
2013-03-02 20:53:00,61.2,53.2,30.00,NNW,341,0.0,0.0,75,0.00,,CLR,0.00,VWS V14.00,2013-03-03 04:53:00,
2013-03-02 20:58:00,61.1,52.8,30.01,NNW,341,0.0,0.0,74,0.00,,CLR,0.00,VWS V14.00,2013-03-03 04:58:00,
2013-03-02 21:00:00,60.9,52.6,30.00,NNW,341,0.0,0.0,74,0.00,,CLR,0.00,VWS V14.00,2013-03-03 05:00:00,
2013-03-02 21:05:00,60.9,52.6,30.00,NNW,341,0.0,0.0,74,0.00,,CLR,0.00,VWS V14.00,2013-03-03 05:05:00,
2013-03-02 21:10:00,60.8,52.5,30.01,NNW,341,0.0,0.0,74,0.00,,CLR,0.00,VWS V14.00,2013-03-03 05:10:00,
2013-03-02 21:15:00,60.9,52.6,30.01,NNW,341,0.0,0.0,74,0.00,,CLR,0.00,VWS V14.00,2013-03-03 05:15:00,
2013-03-02 21:20:00,60.9,52.9,30.01,NNW,341,0.0,0.0,75,0.00,,CLR,0.00,VWS V14.00,2013-03-03 05:20:00,
2013-03-02 21:25:00,60.6,52.6,30.01,NNW,341,0.0,0.0,75,0.00,,CLR,0.00,VWS V14.00,2013-03-03 05:25:00,
2013-03-02 21:30:00,60.5,52.5,30.01,NNW,341,0.0,0.0,75,0.00,,CLR,0.00,VWS V14.00,2013-03-03 05:30:00,
2013-03-02 21:35:00,60.6,53.0,30.01,NNW,341,0.0,0.0,76,0.00,,CLR,0.00,VWS V14.00,2013-03-03 05:35:00,
2013-03-02 21:40:00,60.6,53.4,30.01,NNW,341,0.0,0.0,77,0.00,,CLR,0.00,VWS V14.00,2013-03-03 05:40:00,
2013-03-02 21:45:00,60.0,52.8,30.01,NNW,341,0.0,0.0,77,0.00,,CLR,0.00,VWS V14.00,2013-03-03 05:45:00,
2013-03-02 21:50:00,60.1,52.9,30.00,NNW,341,0.0,0.0,77,0.00,,CLR,0.00,VWS V14.00,2013-03-03 05:50:00,
2013-03-02 21:55:00,59.9,52.0,30.00,NNW,341,0.0,0.0,75,0.00,,CLR,0.00,VWS V14.00,2013-03-03 05:55:00,
2013-03-02 22:00:00,60.0,52.1,30.00,NNW,341,0.0,0.0,75,0.00,,CLR,0.00,VWS V14.00,2013-03-03 06:00:00,
2013-03-02 22:05:00,59.9,51.6,30.01,NNW,341,0.0,0.0,74,0.00,,CLR,0.00,VWS V14.00,2013-03-03 06:05:00,
2013-03-02 22:10:00,59.5,50.5,30.01,North,350,2.0,2.0,72,0.00,,CLR,0.00,VWS V14.00,2013-03-03 06:10:00,
2013-03-02 22:15:00,60.0,51.3,30.01,North,0,0.0,2.0,73,0.00,,CLR,0.00,VWS V14.00,2013-03-03 06:15:00,
2013-03-02 22:20:00,59.3,51.4,30.00,NNW,339,0.0,4.0,75,0.00,,CLR,0.00,VWS V14.00,2013-03-03 06:20:00,
2013-03-02 22:25:00,59.6,51.7,30.00,North,358,0.0,4.0,75,0.00,,CLR,0.00,VWS V14.00,2013-03-03 06:25:00,
2013-03-02 22:30:00,59.5,51.2,30.01,NNW,340,0.0,1.0,74,0.00,,CLR,0.00,VWS V14.00,2013-03-03 06:30:00,
2013-03-02 22:35:00,59.2,51.3,30.01,NNW,348,0.0,1.0,75,0.00,,CLR,0.00,VWS V14.00,2013-03-03 06:35:00,
2013-03-02 22:40:00,58.9,51.0,30.01,NNW,348,0.0,1.0,75,0.00,,CLR,0.00,VWS V14.00,2013-03-03 06:40:00,
2013-03-02 22:45:00,58.7,50.8,30.01,North,0,0.0,2.0,75,0.00,,FEW120,0.00,VWS V14.00,2013-03-03 06:45:00,
2013-03-02 22:50:00,58.5,51.0,30.01,NW,317,0.0,5.0,76,0.00,,FEW120,0.00,VWS V14.00,2013-03-03 06:50:00,
2013-03-02 22:55:00,58.4,51.2,30.01,North,0,0.0,5.0,77,0.00,,FEW120,0.00,VWS V14.00,2013-03-03 06:55:00,
2013-03-02 23:00:00,58.1,50.9,30.01,North,0,1.0,1.0,77,0.00,,FEW120,0.00,VWS V14.00,2013-03-03 07:00:00,
2013-03-02 23:05:00,58.1,50.9,30.01,North,4,0.0,3.0,77,0.00,,FEW120,0.00,VWS V14.00,2013-03-03 07:05:00,
2013-03-02 23:10:00,58.0,51.2,30.01,North,4,0.0,3.0,78,0.00,,FEW120,0.00,VWS V14.00,2013-03-03 07:10:00,
2013-03-02 23:15:00,57.9,51.1,30.02,North,4,0.0,3.0,78,0.00,,FEW120,0.00,VWS V14.00,2013-03-03 07:15:00,
2013-03-02 23:20:00,57.7,51.2,30.02,North,4,0.0,3.0,79,0.00,,FEW120,0.00,VWS V14.00,2013-03-03 07:20:00,
2013-03-02 23:25:00,57.8,51.3,30.01,North,4,0.0,3.0,79,0.00,,FEW120,0.00,VWS V14.00,2013-03-03 07:25:00,
2013-03-02 23:30:00,57.9,51.4,30.01,North,4,0.0,0.0,79,0.00,,FEW120,0.00,VWS V14.00,2013-03-03 07:30:00,
2013-03-02 23:35:00,57.6,51.1,30.01,North,4,0.0,1.0,79,0.00,,FEW120,0.00,VWS V14.00,2013-03-03 07:35:00,
2013-03-02 23:40:00,57.6,51.1,30.01,North,4,0.0,1.0,79,0.00,,FEW120,0.00,VWS V14.00,2013-03-03 07:40:00,
2013-03-02 23:45:00,57.4,51.0,30.01,North,4,0.0,1.0,79,0.00,,BKN120,0.00,VWS V14.00,2013-03-03 07:45:00,
2013-03-02 23:50:00,57.4,51.0,30.02,North,4,0.0,1.0,79,0.00,,BKN120,0.00,VWS V14.00,2013-03-03 07:50:00,
2013-03-02 23:55:00,57.1,51.0,30.02,North,4,0.0,1.0,80,0.00,,BKN120,0.00,VWS V14.00,2013-03-03 07:55:00,